createdAt,value
2023-01-06T00:02:02.832Z,106.13
2023-01-06T00:04:36.806Z,108.30
2023-01-06T00:07:10.876Z,110.80
2023-01-06T00:09:46.957Z,106.90
2023-01-06T00:12:21.227Z,109.53
2023-01-06T00:14:55.517Z,110.60
2023-01-06T00:17:29.467Z,110.87
2023-01-06T00:20:03.375Z,109.07
2023-01-06T00:22:37.735Z,111.30
2023-01-06T00:25:17.872Z,109.33
2023-01-06T00:27:51.863Z,108.10
2023-01-06T00:30:26.080Z,112.93
2023-01-06T00:33:00.041Z,109.80
2023-01-06T00:35:34.314Z,107.47
2023-01-06T00:38:08.260Z,110.63
2023-01-06T00:40:44.117Z,107.67
2023-01-06T00:43:17.839Z,107.10
2023-01-06T00:45:51.523Z,108.90
2023-01-06T00:48:25.630Z,107.90
2023-01-06T00:51:06.221Z,107.07
2023-01-06T00:53:40.392Z,107.37
2023-01-06T00:56:16.239Z,106.33
2023-01-06T00:58:50.186Z,108.33
2023-01-06T01:01:24.633Z,107.63
2023-01-06T01:03:58.917Z,105.63
2023-01-06T01:06:32.916Z,105.33
2023-01-06T01:09:07.151Z,105.60
2023-01-06T01:11:59.058Z,104.83
2023-01-06T01:14:33.496Z,107.77
2023-01-06T01:17:08.565Z,104.57
2023-01-06T01:19:43.291Z,105.37
2023-01-06T01:22:17.717Z,103.77
2023-01-06T01:24:51.772Z,103.03
2023-01-06T01:27:27.923Z,103.17
2023-01-06T01:30:02.104Z,103.60
2023-01-06T01:32:36.252Z,105.30
2023-01-06T01:35:10.631Z,105.27
2023-01-06T01:37:46.391Z,104.80
2023-01-06T01:40:20.562Z,106.33
2023-01-06T01:42:56.562Z,103.30
2023-01-06T01:45:31.670Z,103.60
2023-01-06T01:48:09.211Z,105.37
2023-01-06T01:50:48.175Z,100.90
2023-01-06T01:53:26.991Z,105.73
2023-01-06T01:56:03.110Z,106.33
2023-01-06T01:58:41.882Z,107.97
2023-01-06T02:01:15.953Z,106.67
2023-01-06T02:03:49.135Z,108.10
2023-01-06T02:06:25.683Z,110.67
2023-01-06T02:09:06.133Z,109.37
2023-01-06T02:11:41.636Z,107.70
2023-01-06T02:14:20.609Z,109.83
2023-01-06T02:17:07.871Z,110.40
2023-01-06T02:20:13.430Z,109.33
2023-01-06T02:23:14.531Z,110.07
2023-01-06T02:26:27.581Z,112.70
2023-01-06T02:29:29.566Z,109.67
2023-01-06T02:32:21.240Z,108.37
2023-01-06T02:35:05.823Z,110.97
2023-01-06T02:37:56.226Z,111.37
2023-01-06T02:40:45.887Z,112.50
2023-01-06T02:43:26.557Z,110.60
2023-01-06T02:46:11.292Z,113.30
2023-01-06T02:49:01.145Z,114.90
2023-01-06T02:51:48.051Z,116.03
2023-01-06T02:54:30.941Z,118.70
2023-01-06T02:57:10.862Z,117.90
2023-01-06T02:59:51.103Z,116.30
2023-01-06T03:02:25.923Z,117.40
2023-01-06T03:05:03.021Z,116.37
2023-01-06T03:07:37.489Z,113.97
2023-01-06T03:10:13.211Z,117.63
2023-01-06T03:12:55.488Z,118.73
2023-01-06T03:15:30.680Z,118.87
2023-01-06T03:18:06.057Z,116.53
2023-01-06T03:20:42.811Z,116.60
2023-01-06T03:23:18.790Z,118.80
2023-01-06T03:25:52.197Z,115.60
2023-01-06T03:28:29.745Z,117.43
2023-01-06T03:31:12.624Z,116.17
2023-01-06T03:33:56.802Z,116.77
2023-01-06T03:36:42.185Z,120.90
2023-01-06T03:39:21.933Z,121.97
2023-01-06T03:42:35.175Z,115.97
2023-01-06T03:45:27.728Z,117.73
2023-01-06T03:48:11.358Z,114.30
2023-01-06T03:50:50.509Z,115.93
2023-01-06T03:53:37.021Z,111.33
2023-01-06T03:56:19.814Z,108.83
2023-01-06T03:58:57.499Z,109.90
2023-01-06T04:01:34.710Z,112.13
2023-01-06T04:04:11.276Z,110.27
2023-01-06T04:06:48.898Z,111.43
2023-01-06T04:09:27.630Z,112.33
2023-01-06T04:12:18.115Z,108.87
2023-01-06T04:14:54.705Z,106.87
2023-01-06T04:17:31.121Z,103.20
2023-01-06T04:20:07.312Z,105.10
2023-01-06T04:22:44.516Z,108.40
2023-01-06T04:25:23.888Z,96.27
2023-01-06T04:27:59.711Z,99.33
2023-01-06T04:30:35.298Z,97.77
2023-01-06T04:33:11.344Z,92.10
2023-01-06T04:35:50.680Z,89.30
2023-01-06T04:38:28.900Z,94.57
2023-01-06T04:41:10.930Z,94.50
2023-01-06T04:43:46.653Z,90.93
2023-01-06T04:46:23.287Z,90.00
2023-01-06T04:48:59.152Z,87.90
2023-01-06T04:51:34.853Z,87.37
2023-01-06T04:54:12.165Z,88.07
2023-01-06T04:56:56.420Z,92.67
2023-01-06T04:59:34.393Z,88.17
2023-01-06T05:02:13.710Z,84.23
2023-01-06T05:04:48.509Z,82.23
2023-01-06T05:07:23.849Z,85.73
2023-01-06T05:09:58.655Z,82.87
2023-01-06T05:12:36.280Z,85.50
2023-01-06T05:15:11.332Z,87.17
2023-01-06T05:17:44.835Z,80.30
2023-01-06T05:20:18.871Z,83.10
2023-01-06T05:22:52.584Z,86.10
2023-01-06T05:25:27.138Z,83.00
2023-01-06T05:28:03.180Z,87.60
2023-01-06T05:30:46.383Z,90.20
2023-01-06T05:33:20.270Z,89.23
2023-01-06T05:36:01.397Z,90.20
2023-01-06T05:38:35.170Z,89.07
2023-01-06T05:41:10.259Z,89.70
2023-01-06T05:43:49.333Z,87.87
2023-01-06T05:46:24.382Z,88.10
2023-01-06T05:48:58.791Z,87.07
2023-01-06T05:51:35.215Z,83.37
2023-01-06T05:54:12.693Z,86.23
2023-01-06T05:56:48.033Z,82.13
2023-01-06T05:59:24.233Z,85.07
2023-01-06T06:01:59.367Z,87.30
2023-01-06T06:04:34.436Z,86.60
2023-01-06T06:07:09.034Z,86.80
2023-01-06T06:09:44.111Z,79.77
2023-01-06T06:12:19.845Z,80.23
2023-01-06T06:14:57.143Z,82.03
2023-01-06T06:17:32.903Z,83.87
2023-01-06T06:20:06.975Z,83.17
2023-01-06T06:22:41.297Z,76.77
2023-01-06T06:25:16.445Z,71.87
2023-01-06T06:27:53.095Z,71.07
2023-01-06T06:30:30.831Z,80.23
2023-01-06T06:33:06.380Z,79.40
2023-01-06T06:35:41.485Z,69.97
2023-01-06T06:38:16.830Z,63.47
2023-01-06T06:40:52.084Z,62.43
2023-01-06T06:43:28.296Z,57.13
2023-01-06T06:46:05.277Z,55.27
2023-01-06T06:48:41.059Z,56.67
2023-01-06T06:51:18.134Z,59.30
2023-01-06T06:53:53.508Z,57.03
2023-01-06T06:56:28.148Z,56.80
2023-01-06T06:59:04.555Z,57.97
2023-01-06T07:01:41.839Z,65.53
2023-01-06T07:04:16.876Z,64.00
2023-01-06T07:06:52.260Z,65.03
2023-01-06T07:09:27.441Z,62.43
2023-01-06T07:12:02.820Z,64.70
2023-01-06T07:14:38.323Z,63.57
2023-01-06T07:17:15.915Z,65.80
2023-01-06T07:19:51.080Z,65.87
2023-01-06T07:22:24.644Z,65.83
2023-01-06T07:24:58.848Z,63.43
2023-01-06T07:27:33.905Z,64.30
2023-01-06T07:30:10.568Z,62.30
2023-01-06T07:32:47.653Z,62.73
2023-01-06T07:35:22.363Z,61.87
2023-01-06T07:37:58.314Z,61.27
2023-01-06T07:40:34.957Z,61.27
2023-01-06T07:43:11.185Z,61.83
2023-01-06T07:45:46.449Z,61.80
2023-01-06T07:48:23.757Z,61.43
2023-01-06T07:50:58.830Z,58.87
2023-01-06T07:53:34.149Z,60.53
2023-01-06T07:56:10.491Z,61.37
2023-01-06T07:58:45.874Z,59.63
2023-01-06T08:01:22.303Z,62.10
2023-01-06T08:04:00.281Z,59.80
2023-01-06T08:06:36.460Z,62.33
2023-01-06T08:09:17.009Z,61.53
2023-01-06T08:11:52.366Z,61.73
2023-01-06T08:14:28.873Z,63.60
2023-01-06T08:17:04.218Z,61.57
2023-01-06T08:19:42.122Z,63.60
2023-01-06T08:22:18.057Z,63.47
2023-01-06T08:24:52.815Z,63.17
2023-01-06T08:27:27.873Z,63.57
2023-01-06T08:30:03.428Z,65.07
2023-01-06T08:32:40.774Z,66.63
2023-01-06T08:35:17.776Z,66.63
2023-01-06T08:37:52.976Z,65.03
2023-01-06T08:40:28.604Z,65.40
2023-01-06T08:43:04.127Z,65.87
2023-01-06T08:45:42.579Z,65.87
2023-01-06T08:48:17.925Z,67.00
2023-01-06T08:50:55.546Z,67.87
2023-01-06T08:53:31.353Z,66.93
2023-01-06T08:56:06.920Z,67.70
2023-01-06T08:58:41.677Z,67.10
2023-01-06T09:01:23.461Z,67.93
2023-01-06T09:03:58.776Z,70.10
2023-01-06T09:06:36.641Z,68.77
2023-01-06T09:09:13.026Z,69.93
2023-01-06T09:11:48.270Z,69.77
2023-01-06T09:14:24.030Z,70.63
2023-01-06T09:16:58.954Z,74.00
2023-01-06T09:19:34.160Z,70.80
2023-01-06T09:22:12.117Z,74.43
2023-01-06T09:24:47.331Z,73.53
2023-01-06T09:27:22.910Z,74.23
2023-01-06T09:29:58.492Z,73.70
2023-01-06T09:32:34.478Z,74.27
2023-01-06T09:35:09.860Z,74.50
2023-01-06T09:37:46.137Z,74.40
2023-01-06T09:40:27.845Z,75.00
2023-01-06T09:43:16.269Z,74.27
2023-01-06T09:45:55.965Z,73.73
2023-01-06T09:48:33.477Z,73.17
2023-01-06T09:51:10.548Z,75.03
2023-01-06T09:53:52.157Z,73.70
2023-01-06T09:56:29.637Z,73.17
2023-01-06T09:59:13.399Z,73.70
2023-01-06T10:01:53.393Z,76.17
2023-01-06T10:04:31.997Z,75.60
2023-01-06T10:07:19.321Z,75.37
2023-01-06T10:10:06.270Z,76.57
2023-01-06T10:12:52.249Z,76.43
2023-01-06T10:15:35.379Z,76.87
2023-01-06T10:18:23.967Z,77.70
2023-01-06T10:21:02.400Z,75.30
2023-01-06T10:23:58.090Z,75.70
2023-01-06T10:26:36.605Z,75.40
2023-01-06T10:29:18.092Z,74.73
2023-01-06T10:31:55.400Z,75.37
2023-01-06T10:34:32.824Z,74.37
2023-01-06T10:37:15.993Z,78.83
2023-01-06T10:39:54.916Z,74.70
2023-01-06T10:42:54.913Z,73.03
2023-01-06T10:45:33.022Z,74.47
2023-01-06T10:48:09.639Z,74.23
2023-01-06T10:50:44.350Z,70.27
2023-01-06T10:53:20.055Z,77.03
2023-01-06T10:55:58.907Z,80.40
2023-01-06T10:58:45.409Z,79.17
2023-01-06T11:01:26.903Z,84.07
2023-01-06T11:04:13.421Z,82.60
2023-01-06T11:06:51.154Z,83.90
2023-01-06T11:09:37.022Z,82.87
2023-01-06T11:12:21.279Z,83.17
2023-01-06T11:15:03.988Z,79.47
2023-01-06T11:17:41.020Z,83.20
2023-01-06T11:20:34.930Z,82.80
2023-01-06T11:23:25.946Z,80.20
2023-01-06T11:26:22.788Z,78.37
2023-01-06T11:29:00.344Z,84.07
2023-01-06T11:31:38.204Z,82.90
2023-01-06T11:34:26.063Z,79.67
2023-01-06T11:37:01.950Z,81.90
2023-01-06T11:39:41.399Z,81.13
2023-01-06T11:42:23.333Z,80.07
2023-01-06T11:44:58.811Z,86.07
2023-01-06T11:47:36.507Z,84.03
2023-01-06T11:50:23.063Z,84.40
2023-01-06T11:53:05.702Z,86.27
2023-01-06T11:55:41.205Z,82.67
2023-01-06T11:58:21.796Z,88.27
2023-01-06T12:01:00.487Z,89.20
2023-01-06T12:03:42.940Z,85.87
2023-01-06T12:06:31.106Z,87.37
2023-01-06T12:09:12.683Z,89.53
2023-01-06T12:11:53.444Z,91.40
2023-01-06T12:14:30.514Z,87.20
2023-01-06T12:17:16.192Z,87.97
2023-01-06T12:20:00.215Z,87.30
2023-01-06T12:22:42.342Z,90.50
2023-01-06T12:25:23.712Z,88.67
2023-01-06T12:28:06.721Z,88.97
2023-01-06T12:30:46.203Z,88.10
2023-01-06T12:33:25.329Z,89.80
2023-01-06T12:36:13.754Z,87.27
2023-01-06T12:38:59.925Z,87.23
2023-01-06T12:41:43.369Z,89.60
2023-01-06T12:44:32.625Z,88.80
2023-01-06T12:47:15.695Z,89.67
2023-01-06T12:50:05.117Z,90.33
2023-01-06T12:52:47.830Z,91.03
2023-01-06T12:55:27.236Z,89.70
2023-01-06T12:58:12.477Z,89.63
2023-01-06T13:00:58.848Z,89.10
2023-01-06T13:04:06.421Z,91.93
2023-01-06T13:07:00.057Z,92.50
2023-01-06T13:09:53.818Z,93.97
2023-01-06T13:12:50.521Z,91.10
2023-01-06T13:15:33.375Z,91.67
2023-01-06T13:18:19.111Z,91.13
2023-01-06T13:21:03.095Z,89.97
2023-01-06T13:23:55.456Z,89.93
2023-01-06T13:26:56.779Z,90.13
2023-01-06T13:30:00.199Z,90.77
2023-01-06T13:32:54.438Z,89.73
2023-01-06T13:35:58.896Z,89.90
2023-01-06T13:39:01.307Z,90.57
2023-01-06T13:41:55.765Z,89.63
2023-01-06T13:44:41.626Z,88.23
2023-01-06T13:47:21.235Z,84.40
2023-01-06T13:50:01.332Z,86.53
2023-01-06T13:52:38.259Z,87.20
2023-01-06T13:55:30.319Z,85.77
2023-01-06T13:58:43.159Z,87.13
2023-01-06T14:01:35.943Z,87.30
2023-01-06T14:04:47.099Z,88.10
2023-01-06T14:07:41.007Z,91.53
2023-01-06T14:10:38.056Z,94.57
2023-01-06T14:13:29.557Z,92.10
2023-01-06T14:16:09.796Z,91.90
2023-01-06T14:18:53.602Z,90.37
2023-01-06T14:21:35.035Z,90.20
2023-01-06T14:24:12.587Z,92.77
2023-01-06T14:27:00.139Z,90.77
2023-01-06T14:30:08.409Z,92.03
2023-01-06T14:33:05.194Z,94.40
2023-01-06T14:35:45.947Z,93.23
2023-01-06T14:38:30.532Z,90.20
2023-01-06T14:41:09.903Z,92.93
2023-01-06T14:43:52.845Z,88.00
2023-01-06T14:46:34.567Z,91.47
2023-01-06T14:49:21.011Z,93.50
2023-01-06T14:52:02.900Z,94.30
2023-01-06T14:54:43.775Z,91.60
2023-01-06T14:57:31.630Z,91.57
2023-01-06T15:00:19.703Z,91.93
2023-01-06T15:03:02.141Z,88.77
2023-01-06T15:05:42.095Z,88.47
2023-01-06T15:08:22.824Z,91.30
2023-01-06T15:10:58.564Z,91.87
2023-01-06T15:13:40.295Z,91.57
2023-01-06T15:16:24.278Z,95.03
2023-01-06T15:19:06.672Z,96.80
2023-01-06T15:21:46.831Z,98.20
2023-01-06T15:24:27.685Z,93.27
2023-01-06T15:27:09.330Z,94.30
2023-01-06T15:29:53.591Z,89.10
2023-01-06T15:32:31.829Z,86.00
2023-01-06T15:35:16.110Z,91.40
2023-01-06T15:37:53.187Z,91.33
2023-01-06T15:40:31.589Z,88.70
2023-01-06T15:43:07.380Z,87.97
2023-01-06T15:45:43.572Z,89.27
2023-01-06T15:48:26.487Z,95.40
2023-01-06T15:51:05.065Z,86.97
2023-01-06T15:53:42.731Z,91.43
2023-01-06T15:56:26.412Z,92.03
2023-01-06T15:59:03.935Z,94.50
2023-01-06T16:01:43.791Z,93.67
2023-01-06T16:04:22.598Z,93.90
2023-01-06T16:07:03.073Z,96.00
2023-01-06T16:09:40.696Z,95.37
2023-01-06T16:12:24.064Z,92.90
2023-01-06T16:15:12.073Z,94.90
2023-01-06T16:17:51.708Z,93.73
2023-01-06T16:20:29.842Z,92.60
2023-01-06T16:23:18.518Z,96.57
2023-01-06T16:26:13.108Z,91.57
2023-01-06T16:28:57.125Z,90.97
2023-01-06T16:31:39.813Z,91.53
2023-01-06T16:34:29.393Z,91.17
2023-01-06T16:37:08.476Z,92.67
2023-01-06T16:39:54.602Z,90.87
2023-01-06T16:42:44.464Z,90.73
2023-01-06T16:45:39.738Z,93.83
2023-01-06T16:48:25.706Z,97.00
2023-01-06T16:51:19.765Z,99.40
2023-01-06T16:53:54.641Z,98.03
2023-01-06T16:56:38.185Z,100.20
2023-01-06T16:59:23.899Z,97.73
2023-01-06T17:02:02.475Z,99.43
2023-01-06T17:04:43.569Z,98.97
2023-01-06T17:07:49.046Z,100.93
2023-01-06T17:10:34.514Z,100.03
2023-01-06T17:13:33.710Z,96.90
2023-01-06T17:16:19.143Z,97.87
2023-01-06T17:19:04.179Z,102.03
2023-01-06T17:21:48.804Z,97.00
2023-01-06T17:24:25.239Z,99.80
2023-01-06T17:27:18.644Z,99.37
2023-01-06T17:30:30.250Z,100.57
2023-01-06T17:33:09.061Z,99.10
2023-01-06T17:35:44.506Z,97.83
2023-01-06T17:38:24.139Z,95.63
2023-01-06T17:40:58.336Z,96.30
2023-01-06T17:43:35.039Z,95.73
2023-01-06T17:46:23.847Z,99.07
2023-01-06T17:49:06.175Z,95.03
2023-01-06T17:51:41.126Z,93.10
2023-01-06T17:54:37.564Z,98.57
2023-01-06T17:57:19.916Z,98.57
2023-01-06T17:59:56.725Z,96.10
2023-01-06T18:02:44.297Z,101.47
2023-01-06T18:06:08.605Z,97.20
2023-01-06T18:08:42.596Z,94.10
2023-01-06T18:11:33.604Z,92.37
2023-01-06T18:14:22.876Z,94.10
2023-01-06T18:16:58.273Z,97.10
2023-01-06T18:19:38.758Z,97.97
2023-01-06T18:22:19.996Z,92.40
2023-01-06T18:24:54.393Z,93.50
2023-01-06T18:27:29.265Z,94.30
2023-01-06T18:30:14.708Z,94.43
2023-01-06T18:32:48.716Z,97.27
2023-01-06T18:35:25.907Z,98.57
2023-01-06T18:38:03.846Z,101.17
2023-01-06T18:40:37.935Z,102.20
2023-01-06T18:43:29.127Z,100.43
2023-01-06T18:46:06.065Z,99.43
2023-01-06T18:48:39.531Z,108.00
2023-01-06T18:51:20.527Z,111.10
2023-01-06T18:53:58.800Z,109.40
2023-01-06T18:56:32.183Z,100.07
2023-01-06T18:59:05.576Z,105.43
2023-01-06T19:01:45.239Z,112.50
2023-01-06T19:04:27.238Z,112.87
2023-01-06T19:07:04.499Z,110.13
2023-01-06T19:09:40.427Z,115.10
2023-01-06T19:12:27.914Z,115.53
2023-01-06T19:15:04.265Z,118.33
2023-01-06T19:17:42.200Z,126.17
2023-01-06T19:20:19.908Z,126.63
2023-01-06T19:22:56.720Z,130.87
2023-01-06T19:25:36.200Z,133.87
2023-01-06T19:28:16.247Z,135.67
2023-01-06T19:30:53.573Z,136.43
2023-01-06T19:33:46.037Z,139.13
2023-01-06T19:36:42.096Z,137.03
2023-01-06T19:39:33.741Z,138.27
2023-01-06T19:42:19.829Z,138.50
2023-01-06T19:44:56.244Z,138.63
2023-01-06T19:47:30.921Z,137.80
2023-01-06T19:50:19.685Z,142.07
2023-01-06T19:52:53.681Z,145.10
2023-01-06T19:55:30.536Z,136.87
2023-01-06T19:58:05.806Z,137.63
2023-01-06T20:00:49.305Z,140.50
2023-01-06T20:03:32.068Z,136.77
2023-01-06T20:06:05.589Z,138.67
2023-01-06T20:08:38.819Z,137.33
2023-01-06T20:11:14.407Z,133.57
2023-01-06T20:13:47.492Z,125.30
2023-01-06T20:16:20.355Z,112.93
2023-01-06T20:18:53.986Z,105.40
2023-01-06T20:21:26.790Z,115.07
2023-01-06T20:24:00.043Z,102.70
2023-01-06T20:26:35.916Z,109.37
2023-01-06T20:29:09.518Z,115.47
2023-01-06T20:31:42.779Z,115.70
2023-01-06T20:34:15.639Z,111.80
2023-01-06T20:36:48.628Z,115.47
2023-01-06T20:39:21.488Z,105.37
2023-01-06T20:41:56.328Z,99.30
2023-01-06T20:44:29.899Z,88.33
2023-01-06T20:47:03.107Z,86.10
2023-01-06T20:49:36.662Z,103.63
2023-01-06T20:52:10.706Z,122.90
2023-01-06T20:54:44.157Z,120.30
2023-01-06T20:57:19.935Z,90.43
2023-01-06T20:59:53.464Z,97.03
2023-01-06T21:02:27.157Z,94.13
2023-01-06T21:05:01.147Z,88.13
2023-01-06T21:07:35.351Z,87.63
2023-01-06T21:10:09.367Z,83.67
2023-01-06T21:12:44.499Z,84.60
2023-01-06T21:15:17.989Z,81.87
2023-01-06T21:17:51.120Z,87.17
2023-01-06T21:20:24.341Z,121.50
2023-01-06T21:22:57.594Z,98.07
2023-01-06T21:25:31.087Z,98.83
2023-01-06T21:28:06.232Z,93.90
2023-01-06T21:30:40.216Z,88.50
2023-01-06T21:33:14.555Z,97.07
2023-01-06T21:35:47.952Z,88.57
2023-01-06T21:38:20.903Z,85.07
2023-01-06T21:40:53.929Z,81.50
2023-01-06T21:43:27.554Z,88.07
2023-01-06T21:46:01.111Z,93.57
2023-01-06T21:48:34.430Z,98.13
2023-01-06T21:51:07.183Z,104.47
2023-01-06T21:53:40.308Z,93.97
2023-01-06T21:56:13.497Z,104.77
2023-01-06T21:58:48.721Z,110.80
2023-01-06T22:01:23.331Z,104.60
2023-01-06T22:03:57.616Z,110.90
2023-01-06T22:06:31.710Z,122.53
2023-01-06T22:09:10.154Z,113.10
2023-01-06T22:11:45.607Z,115.50
2023-01-06T22:14:22.034Z,125.03
2023-01-06T22:16:55.866Z,125.00
2023-01-06T22:19:30.756Z,103.40
2023-01-06T22:22:04.999Z,102.27
2023-01-06T22:24:39.141Z,105.83
2023-01-06T22:27:12.869Z,104.57
2023-01-06T22:29:48.636Z,105.43
2023-01-06T22:32:22.155Z,101.40
2023-01-06T22:34:56.026Z,109.53
2023-01-06T22:37:29.178Z,115.40
2023-01-06T22:40:02.541Z,113.50
2023-01-06T22:42:35.457Z,106.97
2023-01-06T22:45:12.577Z,114.97
2023-01-06T22:47:46.273Z,114.13
2023-01-06T22:50:19.701Z,100.53
2023-01-06T22:52:52.447Z,96.53
2023-01-06T22:55:25.583Z,94.70
2023-01-06T22:57:58.417Z,95.63
2023-01-06T23:00:33.860Z,97.50
2023-01-06T23:03:07.225Z,102.17
2023-01-06T23:05:40.729Z,103.30
2023-01-06T23:08:14.308Z,105.67
2023-01-06T23:10:47.521Z,107.83
2023-01-06T23:13:21.429Z,116.30
2023-01-06T23:16:04.358Z,109.90
2023-01-06T23:18:38.082Z,111.80
2023-01-06T23:21:13.222Z,114.40
2023-01-06T23:23:47.246Z,110.67
2023-01-06T23:26:22.521Z,110.07
2023-01-06T23:28:56.970Z,105.10
2023-01-06T23:31:34.523Z,109.23
2023-01-06T23:34:09.542Z,113.10
2023-01-06T23:36:42.912Z,108.57
2023-01-06T23:39:18.136Z,102.23
2023-01-06T23:41:51.287Z,93.90
2023-01-06T23:44:25.067Z,93.30
2023-01-06T23:47:00.495Z,101.33
2023-01-06T23:49:34.393Z,103.40
2023-01-06T23:52:07.729Z,97.60
2023-01-06T23:54:41.051Z,105.47
2023-01-06T23:57:13.961Z,97.33
2023-01-06T23:59:47.996Z,103.93
